<?xml version="1.0" encoding="UTF-8" standalone="no" ?>
<gpx xmlns="http://www.topografix.com/GPX/1/1" xmlns:xsi="http://www.w3.org/2001/XMLSchema-instance" xsi:schemaLocation="http://www.topografix.com/GPX/1/1 http://www.topografix.com/GPX/1/1/gpx.xsd" version="1.1" creator="VisuGPX - https://www.visugpx.com">
  <metadata>
    <name>La Route Napoléon à Cheval© dans les Alpes de Haute-Provence - Raccourci de la Route Napoleon à Cheval© à L'Escale (sud de Sisteron)</name>
    <desc><![CDATA[

C'est un itinéraire de 140 km de Peyroules à Sisteron. L'altitude varie de 425 m à 1 245 m. Le dénivelé maximum est de 20 %.La moyenne montagne représente 60 % du parcours.

Randonner sur la Route Napoléon à Cheval avec un centre équestre
Les Crins de GaÏa, Hameau des Tourettes - 04300 Forcalquier.
Site internet : http://www.lescrinsdegaia.com 
Mail : stevelatruffe@yahoo.fr  Tél : 06 86 10 90 17
]]></desc>
  </metadata>
  <trk>
    <name><![CDATA[4510305-Raccourci Rte Napoléon à Cheval de l'Escale]]></name>
    <trkseg>
      <trkpt lat="44.06982" lon="6.04716">
        <ele>733</ele>
        <time>2018-05-15T21:23:26Z</time>
      </trkpt>
      <trkpt lat="44.0695" lon="6.04666">
        <ele>737</ele>
        <time>2018-05-15T21:24:26Z</time>
      </trkpt>
      <trkpt lat="44.06913" lon="6.04463">
        <ele>748</ele>
        <time>2018-05-15T21:25:26Z</time>
      </trkpt>
      <trkpt lat="44.06964" lon="6.04394">
        <ele>731</ele>
        <time>2018-05-15T21:26:26Z</time>
      </trkpt>
      <trkpt lat="44.06961" lon="6.04244">
        <ele>735</ele>
        <time>2018-05-15T21:27:26Z</time>
      </trkpt>
      <trkpt lat="44.07052" lon="6.04181">
        <ele>707</ele>
        <time>2018-05-15T21:28:26Z</time>
      </trkpt>
      <trkpt lat="44.07111" lon="6.03972">
        <ele>689</ele>
        <time>2018-05-15T21:29:26Z</time>
      </trkpt>
      <trkpt lat="44.07066" lon="6.03896">
        <ele>699</ele>
        <time>2018-05-15T21:30:26Z</time>
      </trkpt>
      <trkpt lat="44.07084" lon="6.03867">
        <ele>692</ele>
        <time>2018-05-15T21:31:26Z</time>
      </trkpt>
      <trkpt lat="44.07101" lon="6.03918">
        <ele>688</ele>
        <time>2018-05-15T21:32:26Z</time>
      </trkpt>
      <trkpt lat="44.07148" lon="6.03941">
        <ele>677</ele>
        <time>2018-05-15T21:33:26Z</time>
      </trkpt>
      <trkpt lat="44.0713" lon="6.04081">
        <ele>682</ele>
        <time>2018-05-15T21:34:26Z</time>
      </trkpt>
      <trkpt lat="44.07134" lon="6.04171">
        <ele>674</ele>
        <time>2018-05-15T21:35:26Z</time>
      </trkpt>
      <trkpt lat="44.07122" lon="6.04273">
        <ele>671</ele>
        <time>2018-05-15T21:36:26Z</time>
      </trkpt>
      <trkpt lat="44.07094" lon="6.04306">
        <ele>677</ele>
        <time>2018-05-15T21:37:26Z</time>
      </trkpt>
      <trkpt lat="44.07099" lon="6.04337">
        <ele>675</ele>
        <time>2018-05-15T21:38:26Z</time>
      </trkpt>
      <trkpt lat="44.07218" lon="6.04275">
        <ele>662</ele>
        <time>2018-05-15T21:39:26Z</time>
      </trkpt>
      <trkpt lat="44.073" lon="6.04214">
        <ele>650</ele>
        <time>2018-05-15T21:40:26Z</time>
      </trkpt>
      <trkpt lat="44.07341" lon="6.04267">
        <ele>659</ele>
        <time>2018-05-15T21:41:26Z</time>
      </trkpt>
      <trkpt lat="44.07385" lon="6.04285">
        <ele>658</ele>
        <time>2018-05-15T21:42:26Z</time>
      </trkpt>
      <trkpt lat="44.07417" lon="6.04271">
        <ele>654</ele>
        <time>2018-05-15T21:43:26Z</time>
      </trkpt>
      <trkpt lat="44.07392" lon="6.04239">
        <ele>651</ele>
        <time>2018-05-15T21:44:26Z</time>
      </trkpt>
      <trkpt lat="44.07392" lon="6.04184">
        <ele>645</ele>
        <time>2018-05-15T21:45:26Z</time>
      </trkpt>
      <trkpt lat="44.07369" lon="6.04164">
        <ele>642</ele>
        <time>2018-05-15T21:46:26Z</time>
      </trkpt>
      <trkpt lat="44.07338" lon="6.04172">
        <ele>643</ele>
        <time>2018-05-15T21:47:26Z</time>
      </trkpt>
      <trkpt lat="44.07236" lon="6.04233">
        <ele>654</ele>
        <time>2018-05-15T21:48:26Z</time>
      </trkpt>
      <trkpt lat="44.07223" lon="6.04257">
        <ele>658</ele>
        <time>2018-05-15T21:49:26Z</time>
      </trkpt>
      <trkpt lat="44.07174" lon="6.0427">
        <ele>660</ele>
        <time>2018-05-15T21:50:26Z</time>
      </trkpt>
      <trkpt lat="44.07167" lon="6.04249">
        <ele>657</ele>
        <time>2018-05-15T21:51:26Z</time>
      </trkpt>
      <trkpt lat="44.07188" lon="6.04152">
        <ele>657</ele>
        <time>2018-05-15T21:52:26Z</time>
      </trkpt>
      <trkpt lat="44.072" lon="6.04111">
        <ele>655</ele>
        <time>2018-05-15T21:53:26Z</time>
      </trkpt>
      <trkpt lat="44.07221" lon="6.04067">
        <ele>649</ele>
        <time>2018-05-15T21:54:26Z</time>
      </trkpt>
      <trkpt lat="44.07199" lon="6.0403">
        <ele>657</ele>
        <time>2018-05-15T21:55:26Z</time>
      </trkpt>
      <trkpt lat="44.07234" lon="6.03995">
        <ele>645</ele>
        <time>2018-05-15T21:56:26Z</time>
      </trkpt>
      <trkpt lat="44.07259" lon="6.03934">
        <ele>644</ele>
        <time>2018-05-15T21:57:26Z</time>
      </trkpt>
      <trkpt lat="44.07327" lon="6.0387">
        <ele>626</ele>
        <time>2018-05-15T21:58:26Z</time>
      </trkpt>
      <trkpt lat="44.07353" lon="6.0386">
        <ele>621</ele>
        <time>2018-05-15T21:59:26Z</time>
      </trkpt>
      <trkpt lat="44.07419" lon="6.03768">
        <ele>603</ele>
        <time>2018-05-15T22:00:26Z</time>
      </trkpt>
      <trkpt lat="44.07453" lon="6.03798">
        <ele>599</ele>
        <time>2018-05-15T22:01:26Z</time>
      </trkpt>
      <trkpt lat="44.07455" lon="6.0374">
        <ele>597</ele>
        <time>2018-05-15T22:02:26Z</time>
      </trkpt>
      <trkpt lat="44.07526" lon="6.03644">
        <ele>584</ele>
        <time>2018-05-15T22:03:26Z</time>
      </trkpt>
      <trkpt lat="44.07603" lon="6.0357">
        <ele>579</ele>
        <time>2018-05-15T22:04:26Z</time>
      </trkpt>
      <trkpt lat="44.07629" lon="6.03508">
        <ele>569</ele>
        <time>2018-05-15T22:05:26Z</time>
      </trkpt>
      <trkpt lat="44.07613" lon="6.03483">
        <ele>567</ele>
        <time>2018-05-15T22:06:26Z</time>
      </trkpt>
      <trkpt lat="44.07539" lon="6.03516">
        <ele>572</ele>
        <time>2018-05-15T22:07:26Z</time>
      </trkpt>
      <trkpt lat="44.07495" lon="6.03577">
        <ele>578</ele>
        <time>2018-05-15T22:08:26Z</time>
      </trkpt>
      <trkpt lat="44.07452" lon="6.03623">
        <ele>587</ele>
        <time>2018-05-15T22:09:26Z</time>
      </trkpt>
      <trkpt lat="44.07441" lon="6.03627">
        <ele>588</ele>
        <time>2018-05-15T22:10:26Z</time>
      </trkpt>
      <trkpt lat="44.07474" lon="6.03514">
        <ele>573</ele>
        <time>2018-05-15T22:11:26Z</time>
      </trkpt>
      <trkpt lat="44.07483" lon="6.03458">
        <ele>565</ele>
        <time>2018-05-15T22:12:26Z</time>
      </trkpt>
      <trkpt lat="44.07501" lon="6.03415">
        <ele>556</ele>
        <time>2018-05-15T22:13:26Z</time>
      </trkpt>
      <trkpt lat="44.07526" lon="6.03403">
        <ele>555</ele>
        <time>2018-05-15T22:14:26Z</time>
      </trkpt>
      <trkpt lat="44.07551" lon="6.03341">
        <ele>551</ele>
        <time>2018-05-15T22:15:26Z</time>
      </trkpt>
      <trkpt lat="44.07594" lon="6.03334">
        <ele>543</ele>
        <time>2018-05-15T22:16:26Z</time>
      </trkpt>
      <trkpt lat="44.0766" lon="6.03329">
        <ele>536</ele>
        <time>2018-05-15T22:17:26Z</time>
      </trkpt>
      <trkpt lat="44.07713" lon="6.03304">
        <ele>530</ele>
        <time>2018-05-15T22:18:26Z</time>
      </trkpt>
      <trkpt lat="44.07785" lon="6.03249">
        <ele>518</ele>
        <time>2018-05-15T22:19:26Z</time>
      </trkpt>
      <trkpt lat="44.07833" lon="6.03195">
        <ele>509</ele>
        <time>2018-05-15T22:20:26Z</time>
      </trkpt>
      <trkpt lat="44.0788" lon="6.03166">
        <ele>507</ele>
        <time>2018-05-15T22:21:26Z</time>
      </trkpt>
      <trkpt lat="44.07916" lon="6.03085">
        <ele>501</ele>
        <time>2018-05-15T22:22:26Z</time>
      </trkpt>
      <trkpt lat="44.07938" lon="6.03052">
        <ele>498</ele>
        <time>2018-05-15T22:23:26Z</time>
      </trkpt>
      <trkpt lat="44.07985" lon="6.02918">
        <ele>493</ele>
        <time>2018-05-15T22:24:26Z</time>
      </trkpt>
      <trkpt lat="44.07986" lon="6.02864">
        <ele>494</ele>
        <time>2018-05-15T22:25:26Z</time>
      </trkpt>
      <trkpt lat="44.07974" lon="6.0283">
        <ele>492</ele>
        <time>2018-05-15T22:26:26Z</time>
      </trkpt>
      <trkpt lat="44.07943" lon="6.02763">
        <ele>485</ele>
        <time>2018-05-15T22:27:26Z</time>
      </trkpt>
      <trkpt lat="44.07934" lon="6.02678">
        <ele>478</ele>
        <time>2018-05-15T22:28:26Z</time>
      </trkpt>
      <trkpt lat="44.0794" lon="6.02626">
        <ele>476</ele>
        <time>2018-05-15T22:29:26Z</time>
      </trkpt>
      <trkpt lat="44.07946" lon="6.02549">
        <ele>472</ele>
        <time>2018-05-15T22:30:26Z</time>
      </trkpt>
      <trkpt lat="44.07967" lon="6.02501">
        <ele>470</ele>
        <time>2018-05-15T22:31:26Z</time>
      </trkpt>
      <trkpt lat="44.07979" lon="6.02405">
        <ele>464</ele>
        <time>2018-05-15T22:32:26Z</time>
      </trkpt>
      <trkpt lat="44.07985" lon="6.02406">
        <ele>464</ele>
        <time>2018-05-15T22:33:26Z</time>
      </trkpt>
      <trkpt lat="44.0807" lon="6.02213">
        <ele>451</ele>
        <time>2018-05-15T22:34:26Z</time>
      </trkpt>
      <trkpt lat="44.08151" lon="6.02141">
        <ele>446</ele>
        <time>2018-05-15T22:35:26Z</time>
      </trkpt>
    </trkseg>
  </trk>
</gpx>